createdAt,value
2023-01-18T00:00:46.570Z,69.34
2023-01-18T00:03:13.917Z,70.83
2023-01-18T00:05:41.732Z,71.08
2023-01-18T00:08:19.069Z,70.57
2023-01-18T00:10:45.954Z,70.24
2023-01-18T00:13:13.143Z,70.28
2023-01-18T00:15:39.761Z,70.15
2023-01-18T00:18:06.492Z,69.97
2023-01-18T00:20:33.311Z,70.31
2023-01-18T00:23:01.873Z,70.34
2023-01-18T00:25:29.178Z,70.11
2023-01-18T00:27:56.700Z,70.17
2023-01-18T00:30:26.066Z,70.27
2023-01-18T00:32:55.637Z,70.21
2023-01-18T00:35:22.763Z,70.14
2023-01-18T00:37:50.407Z,70.10
2023-01-18T00:40:17.558Z,70.08
2023-01-18T00:43:02.955Z,70.15
2023-01-18T00:45:29.870Z,70.12
2023-01-18T00:47:56.594Z,70.12
2023-01-18T00:50:23.337Z,70.25
2023-01-18T00:52:50.296Z,70.14
2023-01-18T00:55:17.891Z,70.04
2023-01-18T00:57:44.605Z,69.97
2023-01-18T01:00:15.339Z,70.05
2023-01-18T01:02:42.166Z,69.85
2023-01-18T01:05:39.299Z,69.73
2023-01-18T01:08:07.161Z,69.98
2023-01-18T01:10:34.860Z,70.05
2023-01-18T01:13:20.331Z,70.57
2023-01-18T01:16:05.593Z,70.71
2023-01-18T01:18:51.075Z,70.89
2023-01-18T01:21:36.360Z,70.73
2023-01-18T01:24:21.753Z,70.66
2023-01-18T01:26:48.400Z,70.58
2023-01-18T01:29:16.019Z,70.62
2023-01-18T01:31:43.068Z,70.62
2023-01-18T01:34:09.998Z,70.58
2023-01-18T01:36:36.796Z,70.44
2023-01-18T01:39:03.895Z,70.34
2023-01-18T01:41:32.726Z,70.36
2023-01-18T01:44:03.009Z,70.61
2023-01-18T01:46:35.465Z,70.33
2023-01-18T01:49:09.515Z,70.38
2023-01-18T01:51:42.289Z,70.60
2023-01-18T01:54:14.849Z,70.56
2023-01-18T01:56:45.398Z,70.66
2023-01-18T01:59:12.406Z,70.78
2023-01-18T02:01:40.416Z,70.65
2023-01-18T02:04:07.235Z,70.60
2023-01-18T02:06:35.796Z,70.88
2023-01-18T02:09:04.913Z,71.19
2023-01-18T02:11:31.694Z,71.52
2023-01-18T02:14:01.877Z,71.40
2023-01-18T02:16:59.936Z,71.80
2023-01-18T02:19:55.990Z,71.90
2023-01-18T02:23:01.136Z,71.70
2023-01-18T02:26:08.918Z,71.38
2023-01-18T02:28:39.803Z,71.43
2023-01-18T02:31:26.404Z,71.33
2023-01-18T02:34:27.179Z,71.33
2023-01-18T02:37:12.795Z,71.30
2023-01-18T02:39:52.085Z,71.36
2023-01-18T02:42:39.402Z,71.24
2023-01-18T02:45:31.371Z,71.39
2023-01-18T02:47:58.531Z,71.40
2023-01-18T02:50:27.317Z,71.26
2023-01-18T02:52:54.518Z,71.14
2023-01-18T02:55:34.840Z,71.15
2023-01-18T02:58:34.781Z,71.35
2023-01-18T03:01:12.332Z,71.51
2023-01-18T03:03:41.007Z,71.29
2023-01-18T03:06:08.578Z,71.27
2023-01-18T03:08:47.726Z,71.29
2023-01-18T03:11:18.279Z,71.36
2023-01-18T03:13:56.810Z,71.29
2023-01-18T03:16:26.251Z,71.10
2023-01-18T03:19:01.331Z,71.07
2023-01-18T03:21:48.859Z,71.21
2023-01-18T03:24:16.823Z,71.39
2023-01-18T03:26:47.274Z,71.35
2023-01-18T03:29:34.935Z,71.30
2023-01-18T03:32:29.565Z,71.35
2023-01-18T03:35:03.365Z,71.62
2023-01-18T03:37:32.436Z,71.87
2023-01-18T03:40:04.155Z,71.98
2023-01-18T03:42:37.975Z,72.13
2023-01-18T03:45:30.034Z,72.29
2023-01-18T03:47:56.688Z,72.26
2023-01-18T03:50:29.476Z,71.97
2023-01-18T03:52:59.314Z,72.01
2023-01-18T03:55:43.861Z,71.87
2023-01-18T03:58:12.831Z,71.85
2023-01-18T04:00:40.169Z,71.86
2023-01-18T04:03:07.023Z,71.89
2023-01-18T04:05:35.152Z,71.74
2023-01-18T04:08:01.824Z,71.85
2023-01-18T04:10:28.424Z,71.74
2023-01-18T04:12:55.148Z,71.80
2023-01-18T04:15:21.816Z,71.88
2023-01-18T04:17:53.217Z,72.13
2023-01-18T04:20:20.033Z,72.23
2023-01-18T04:22:52.264Z,72.55
2023-01-18T04:25:19.439Z,72.19
2023-01-18T04:27:46.064Z,72.45
2023-01-18T04:30:13.016Z,72.22
2023-01-18T04:32:40.109Z,72.08
2023-01-18T04:35:07.047Z,72.16
2023-01-18T04:37:34.245Z,72.00
2023-01-18T04:40:01.185Z,72.04
2023-01-18T04:42:27.829Z,71.88
2023-01-18T04:44:54.495Z,71.94
2023-01-18T04:47:21.164Z,71.98
2023-01-18T04:49:50.881Z,71.84
2023-01-18T04:52:19.141Z,71.77
2023-01-18T04:54:45.975Z,71.91
2023-01-18T04:57:12.663Z,71.95
2023-01-18T04:59:39.370Z,72.04
2023-01-18T05:02:06.169Z,72.02
2023-01-18T05:04:32.850Z,72.09
2023-01-18T05:07:02.305Z,72.03
2023-01-18T05:09:29.013Z,71.93
2023-01-18T05:11:55.629Z,72.00
2023-01-18T05:14:22.248Z,72.09
2023-01-18T05:16:48.949Z,72.27
2023-01-18T05:19:16.215Z,72.07
2023-01-18T05:21:42.825Z,72.05
2023-01-18T05:24:09.534Z,72.33
2023-01-18T05:26:36.531Z,72.18
2023-01-18T05:29:03.242Z,72.23
2023-01-18T05:31:29.937Z,72.21
2023-01-18T05:33:57.618Z,72.32
2023-01-18T05:36:24.362Z,72.45
2023-01-18T05:38:50.999Z,72.41
2023-01-18T05:41:18.019Z,72.56
2023-01-18T05:43:44.693Z,72.77
2023-01-18T05:46:11.496Z,72.72
2023-01-18T05:48:38.217Z,72.82
2023-01-18T05:51:09.471Z,72.87
2023-01-18T05:53:36.157Z,73.07
2023-01-18T05:56:05.402Z,72.94
2023-01-18T05:58:32.046Z,73.12
2023-01-18T06:00:58.928Z,73.16
2023-01-18T06:03:25.662Z,73.10
2023-01-18T06:05:52.552Z,73.16
2023-01-18T06:08:22.477Z,73.26
2023-01-18T06:10:56.810Z,73.48
2023-01-18T06:13:24.307Z,73.46
2023-01-18T06:15:52.095Z,73.48
2023-01-18T06:18:18.822Z,73.71
2023-01-18T06:20:45.662Z,73.77
2023-01-18T06:23:12.555Z,73.76
2023-01-18T06:25:39.248Z,73.66
2023-01-18T06:28:06.526Z,73.52
2023-01-18T06:30:34.484Z,73.84
2023-01-18T06:33:06.731Z,73.68
2023-01-18T06:35:34.354Z,73.79
2023-01-18T06:38:01.232Z,73.82
2023-01-18T06:40:34.049Z,73.96
2023-01-18T06:43:01.691Z,74.03
2023-01-18T06:45:29.492Z,74.18
2023-01-18T06:47:56.329Z,74.16
2023-01-18T06:50:23.076Z,74.21
2023-01-18T06:52:49.769Z,74.29
2023-01-18T06:55:16.521Z,74.27
2023-01-18T06:57:43.145Z,74.16
2023-01-18T07:00:11.393Z,74.24
2023-01-18T07:02:38.229Z,74.23
2023-01-18T07:05:08.095Z,74.37
2023-01-18T07:07:34.738Z,74.58
2023-01-18T07:10:01.368Z,74.50
2023-01-18T07:12:27.971Z,74.32
2023-01-18T07:14:54.616Z,74.17
2023-01-18T07:17:24.368Z,74.28
2023-01-18T07:19:51.171Z,74.30
2023-01-18T07:22:17.794Z,74.34
2023-01-18T07:24:45.664Z,74.64
2023-01-18T07:27:12.582Z,74.40
2023-01-18T07:29:39.287Z,74.38
2023-01-18T07:32:05.975Z,74.64
2023-01-18T07:34:32.631Z,75.48
2023-01-18T07:36:59.293Z,74.90
2023-01-18T07:39:25.934Z,74.71
2023-01-18T07:41:52.619Z,74.73
2023-01-18T07:44:19.381Z,74.96
2023-01-18T07:46:46.005Z,74.78
2023-01-18T07:49:12.701Z,74.92
2023-01-18T07:51:39.351Z,74.71
2023-01-18T07:54:06.091Z,74.66
2023-01-18T07:56:32.853Z,75.65
2023-01-18T07:58:59.843Z,74.75
2023-01-18T08:01:26.793Z,74.32
2023-01-18T08:03:54.852Z,74.57
2023-01-18T08:06:25.095Z,73.93
2023-01-18T08:08:52.696Z,73.82
2023-01-18T08:11:19.731Z,73.50
2023-01-18T08:13:48.990Z,73.23
2023-01-18T08:16:16.319Z,73.40
2023-01-18T08:18:45.324Z,73.28
2023-01-18T08:21:13.318Z,73.13
2023-01-18T08:23:40.604Z,72.96
2023-01-18T08:26:08.378Z,71.85
2023-01-18T08:28:35.089Z,72.32
2023-01-18T08:31:08.033Z,72.34
2023-01-18T08:33:40.084Z,72.37
2023-01-18T08:36:10.623Z,72.03
2023-01-18T08:38:37.313Z,72.11
2023-01-18T08:41:04.532Z,72.02
2023-01-18T08:43:31.429Z,72.14
2023-01-18T08:45:58.054Z,71.81
2023-01-18T08:48:24.688Z,72.09
2023-01-18T08:50:51.793Z,71.89
2023-01-18T08:53:18.530Z,72.04
2023-01-18T08:55:45.287Z,72.08
2023-01-18T08:58:12.795Z,72.17
2023-01-18T09:00:39.411Z,72.24
2023-01-18T09:03:06.944Z,72.19
2023-01-18T09:05:35.716Z,72.54
2023-01-18T09:08:03.688Z,72.39
2023-01-18T09:10:30.433Z,72.33
2023-01-18T09:12:57.428Z,72.24
2023-01-18T09:15:24.416Z,72.13
2023-01-18T09:17:51.049Z,72.08
2023-01-18T09:20:19.039Z,71.97
2023-01-18T09:22:48.680Z,71.99
2023-01-18T09:25:18.188Z,71.71
2023-01-18T09:27:46.770Z,71.94
2023-01-18T09:30:16.172Z,71.84
2023-01-18T09:32:43.025Z,71.73
2023-01-18T09:35:10.068Z,71.92
2023-01-18T09:37:36.693Z,71.74
2023-01-18T09:40:07.030Z,71.43
2023-01-18T09:42:37.131Z,71.38
2023-01-18T09:45:04.186Z,71.23
2023-01-18T09:47:40.627Z,71.25
2023-01-18T09:50:17.453Z,71.22
2023-01-18T09:53:06.019Z,71.04
2023-01-18T09:55:40.199Z,70.80
2023-01-18T09:58:36.994Z,70.93
2023-01-18T10:01:16.022Z,70.60
2023-01-18T10:03:56.313Z,70.49
2023-01-18T10:06:30.397Z,70.00
2023-01-18T10:09:07.222Z,69.53
2023-01-18T10:11:47.535Z,69.03
2023-01-18T10:14:33.308Z,69.21
2023-01-18T10:17:03.557Z,68.89
2023-01-18T10:19:31.880Z,68.16
2023-01-18T10:22:28.516Z,67.64
2023-01-18T10:25:26.467Z,67.61
2023-01-18T10:28:16.244Z,66.26
2023-01-18T10:31:23.634Z,65.51
2023-01-18T10:33:54.881Z,65.85
2023-01-18T10:36:33.522Z,66.50
2023-01-18T10:39:02.651Z,66.88
2023-01-18T10:41:34.755Z,66.48
2023-01-18T10:44:01.948Z,66.52
2023-01-18T10:46:29.234Z,66.46
2023-01-18T10:48:59.325Z,66.35
2023-01-18T10:51:36.969Z,66.35
2023-01-18T10:54:29.997Z,66.20
2023-01-18T10:57:05.920Z,65.91
2023-01-18T10:59:39.830Z,66.28
2023-01-18T11:02:29.676Z,66.74
2023-01-18T11:05:00.654Z,66.42
2023-01-18T11:07:28.638Z,66.41
2023-01-18T11:09:59.461Z,67.29
2023-01-18T11:12:38.931Z,67.07
2023-01-18T11:15:14.913Z,67.14
2023-01-18T11:17:46.126Z,66.96
2023-01-18T11:20:23.386Z,66.89
2023-01-18T11:22:54.455Z,66.75
2023-01-18T11:25:21.791Z,66.13
2023-01-18T11:27:49.189Z,67.46
2023-01-18T11:30:25.498Z,67.17
2023-01-18T11:32:52.307Z,66.87
2023-01-18T11:35:30.945Z,66.18
2023-01-18T11:37:59.197Z,66.14
2023-01-18T11:40:32.299Z,66.09
2023-01-18T11:43:04.046Z,65.89
2023-01-18T11:45:33.666Z,66.47
2023-01-18T11:48:08.635Z,66.08
2023-01-18T11:50:43.407Z,66.02
2023-01-18T11:53:13.170Z,66.42
2023-01-18T11:55:46.775Z,65.80
2023-01-18T11:58:28.594Z,65.64
2023-01-18T12:01:09.718Z,66.89
2023-01-18T12:03:53.409Z,66.49
2023-01-18T12:06:27.350Z,66.18
2023-01-18T12:09:16.808Z,65.72
2023-01-18T12:12:17.705Z,65.73
2023-01-18T12:15:18.433Z,65.85
2023-01-18T12:18:13.952Z,65.80
2023-01-18T12:21:06.118Z,65.72
2023-01-18T12:23:54.621Z,65.88
2023-01-18T12:26:30.425Z,66.09
2023-01-18T12:28:59.974Z,65.46
2023-01-18T12:31:49.639Z,65.88
2023-01-18T12:34:27.504Z,65.41
2023-01-18T12:37:11.894Z,65.45
2023-01-18T12:40:03.452Z,65.52
2023-01-18T12:43:05.335Z,65.56
2023-01-18T12:45:57.193Z,64.90
2023-01-18T12:48:42.640Z,64.96
2023-01-18T12:51:14.193Z,66.58
2023-01-18T12:53:59.374Z,66.22
2023-01-18T12:56:32.273Z,66.42
2023-01-18T12:59:01.895Z,66.52
2023-01-18T13:01:37.035Z,66.09
2023-01-18T13:04:14.342Z,65.67
2023-01-18T13:06:42.022Z,65.74
2023-01-18T13:09:19.164Z,65.74
2023-01-18T13:11:45.991Z,66.86
2023-01-18T13:14:27.690Z,66.67
2023-01-18T13:17:18.421Z,66.03
2023-01-18T13:19:54.728Z,65.75
2023-01-18T13:22:29.016Z,65.69
2023-01-18T13:25:23.580Z,65.71
2023-01-18T13:28:11.817Z,65.36
2023-01-18T13:31:06.498Z,64.99
2023-01-18T13:33:39.319Z,65.43
2023-01-18T13:36:08.185Z,64.58
2023-01-18T13:38:48.472Z,65.10
2023-01-18T13:41:17.001Z,64.92
2023-01-18T13:43:43.719Z,65.20
2023-01-18T13:46:10.317Z,64.75
2023-01-18T13:48:54.515Z,64.53
2023-01-18T13:51:39.645Z,64.98
2023-01-18T13:54:08.514Z,64.61
2023-01-18T13:56:37.685Z,64.34
2023-01-18T13:59:20.065Z,64.42
2023-01-18T14:01:51.209Z,64.88
2023-01-18T14:04:32.214Z,64.33
2023-01-18T14:07:02.234Z,64.14
2023-01-18T14:09:44.819Z,64.43
2023-01-18T14:12:12.045Z,64.19
2023-01-18T14:14:57.113Z,63.94
2023-01-18T14:17:25.395Z,63.99
2023-01-18T14:20:25.584Z,63.75
2023-01-18T14:23:17.884Z,64.18
2023-01-18T14:25:50.956Z,64.16
2023-01-18T14:28:34.834Z,64.48
2023-01-18T14:31:04.355Z,64.26
2023-01-18T14:33:35.306Z,64.33
2023-01-18T14:36:02.830Z,64.15
2023-01-18T14:38:32.675Z,63.97
2023-01-18T14:41:06.926Z,64.02
2023-01-18T14:43:41.370Z,63.51
2023-01-18T14:46:17.169Z,63.90
2023-01-18T14:48:48.533Z,64.16
2023-01-18T14:51:26.044Z,64.24
2023-01-18T14:54:02.055Z,64.35
2023-01-18T14:56:32.009Z,64.46
2023-01-18T14:59:16.800Z,64.50
2023-01-18T15:01:54.670Z,64.84
2023-01-18T15:04:33.016Z,64.93
2023-01-18T15:07:02.031Z,64.77
2023-01-18T15:09:31.416Z,64.89
2023-01-18T15:12:00.118Z,64.87
2023-01-18T15:14:29.342Z,64.67
2023-01-18T15:16:56.938Z,64.95
2023-01-18T15:19:41.770Z,65.19
2023-01-18T15:22:11.230Z,65.08
2023-01-18T15:24:40.159Z,65.21
2023-01-18T15:27:12.295Z,65.21
2023-01-18T15:29:39.511Z,65.07
2023-01-18T15:32:15.707Z,65.32
2023-01-18T15:34:45.073Z,65.15
2023-01-18T15:37:26.416Z,65.16
2023-01-18T15:40:03.788Z,65.47
2023-01-18T15:42:38.342Z,65.58
2023-01-18T15:45:12.825Z,65.56
2023-01-18T15:47:39.555Z,65.74
2023-01-18T15:50:16.483Z,65.90
2023-01-18T15:52:45.550Z,65.96
2023-01-18T15:55:34.392Z,66.08
2023-01-18T15:58:09.253Z,66.21
2023-01-18T16:00:41.226Z,66.44
2023-01-18T16:03:25.909Z,66.36
2023-01-18T16:06:11.415Z,66.36
2023-01-18T16:08:56.860Z,66.53
2023-01-18T16:11:32.215Z,66.88
2023-01-18T16:14:00.983Z,66.76
2023-01-18T16:16:29.259Z,66.70
2023-01-18T16:19:05.514Z,67.10
2023-01-18T16:21:42.883Z,67.11
2023-01-18T16:24:15.781Z,67.31
2023-01-18T16:26:43.483Z,67.21
2023-01-18T16:29:10.562Z,67.05
2023-01-18T16:31:41.119Z,68.08
2023-01-18T16:34:18.224Z,68.74
2023-01-18T16:36:44.951Z,68.24
2023-01-18T16:39:11.636Z,67.67
2023-01-18T16:41:38.361Z,67.61
2023-01-18T16:44:05.144Z,67.40
2023-01-18T16:46:33.611Z,67.26
2023-01-18T16:49:00.336Z,67.10
2023-01-18T16:51:28.874Z,67.34
2023-01-18T16:53:55.752Z,67.30
2023-01-18T16:56:22.468Z,66.76
2023-01-18T16:58:49.342Z,66.39
2023-01-18T17:01:16.650Z,66.48
2023-01-18T17:03:43.538Z,66.35
2023-01-18T17:06:16.569Z,66.48
2023-01-18T17:08:43.765Z,66.13
2023-01-18T17:11:12.514Z,66.90
2023-01-18T17:13:40.083Z,66.68
2023-01-18T17:16:12.944Z,66.62
2023-01-18T17:18:39.791Z,66.50
2023-01-18T17:21:10.602Z,66.41
2023-01-18T17:23:39.338Z,66.19
2023-01-18T17:26:13.116Z,66.37
2023-01-18T17:28:39.836Z,66.50
2023-01-18T17:31:06.609Z,66.18
2023-01-18T17:33:36.117Z,66.18
2023-01-18T17:38:49.423Z,66.15
2023-01-18T17:41:27.673Z,66.12
2023-01-18T17:43:55.371Z,66.21
2023-01-18T17:46:22.243Z,66.17
2023-01-18T17:48:49.025Z,66.11
2023-01-18T17:51:16.792Z,65.99
2023-01-18T17:53:43.534Z,66.25
2023-01-18T17:56:12.315Z,66.26
2023-01-18T17:58:39.639Z,66.47
2023-01-18T18:01:10.544Z,66.66
2023-01-18T18:03:43.377Z,66.62
2023-01-18T18:06:11.187Z,66.83
2023-01-18T18:08:39.328Z,66.98
2023-01-18T18:11:10.072Z,67.14
2023-01-18T18:13:37.202Z,67.14
2023-01-18T18:16:04.813Z,67.21
2023-01-18T18:18:31.661Z,67.66
2023-01-18T18:21:03.443Z,67.64
2023-01-18T18:23:30.464Z,67.84
2023-01-18T18:25:57.342Z,67.92
2023-01-18T18:28:25.005Z,68.06
2023-01-18T18:30:51.870Z,68.09
2023-01-18T18:33:19.436Z,68.43
2023-01-18T18:35:50.401Z,68.43
2023-01-18T18:38:23.104Z,68.50
2023-01-18T18:40:50.753Z,68.50
2023-01-18T18:43:17.516Z,68.60
2023-01-18T18:45:44.769Z,68.89
2023-01-18T18:48:13.194Z,68.99
2023-01-18T18:50:40.205Z,69.27
2023-01-18T18:53:14.021Z,69.16
2023-01-18T18:55:40.756Z,69.29
2023-01-18T18:58:07.450Z,69.14
2023-01-18T19:00:34.632Z,69.25
2023-01-18T19:03:02.753Z,69.19
2023-01-18T19:05:30.863Z,69.01
2023-01-18T19:07:57.577Z,69.19
2023-01-18T19:10:27.555Z,69.22
2023-01-18T19:12:55.164Z,69.30
2023-01-18T19:15:21.875Z,69.17
2023-01-18T19:17:50.138Z,69.46
2023-01-18T19:20:20.172Z,69.64
2023-01-18T19:22:47.942Z,69.39
2023-01-18T19:25:18.511Z,69.48
2023-01-18T19:27:45.730Z,69.56
2023-01-18T19:30:18.916Z,69.65
2023-01-18T19:32:47.725Z,69.65
2023-01-18T19:35:14.494Z,69.73
2023-01-18T19:37:41.542Z,69.98
2023-01-18T19:40:09.854Z,70.11
2023-01-18T19:42:36.626Z,70.14
2023-01-18T19:45:04.844Z,70.06
2023-01-18T19:47:31.713Z,70.20
2023-01-18T19:50:03.022Z,70.15
2023-01-18T19:52:30.661Z,69.84
2023-01-18T19:54:59.057Z,69.96
2023-01-18T19:57:26.678Z,70.06
2023-01-18T19:59:53.810Z,69.77
2023-01-18T20:02:22.678Z,70.06
2023-01-18T20:04:49.934Z,69.97
2023-01-18T20:07:16.657Z,70.00
2023-01-18T20:09:43.751Z,69.94
2023-01-18T20:12:12.707Z,70.04
2023-01-18T20:14:41.959Z,69.85
2023-01-18T20:17:10.788Z,70.01
2023-01-18T20:19:37.577Z,70.29
2023-01-18T20:27:16.354Z,72.85
2023-01-18T20:29:43.702Z,72.59
2023-01-18T20:32:16.026Z,72.01
2023-01-18T20:34:44.823Z,71.55
2023-01-18T20:37:12.825Z,71.19
2023-01-18T20:39:39.613Z,70.97
2023-01-18T20:42:06.304Z,70.73
2023-01-18T20:44:32.931Z,70.69
2023-01-18T20:46:59.490Z,70.41
2023-01-18T20:49:37.245Z,70.30
2023-01-18T20:52:05.181Z,70.27
2023-01-18T20:54:32.543Z,70.40
2023-01-18T20:57:00.109Z,70.18
2023-01-18T20:59:26.678Z,70.05
2023-01-18T21:01:53.528Z,70.01
2023-01-18T21:04:20.764Z,69.84
2023-01-18T21:06:49.970Z,69.86
2023-01-18T21:09:16.778Z,69.97
2023-01-18T21:11:43.768Z,70.09
2023-01-18T21:14:10.349Z,70.04
2023-01-18T21:16:36.989Z,69.92
2023-01-18T21:19:03.780Z,69.75
2023-01-18T21:21:31.940Z,69.75
2023-01-18T21:23:59.314Z,69.90
2023-01-18T21:26:25.988Z,69.90
2023-01-18T21:28:52.618Z,69.85
2023-01-18T21:31:19.312Z,69.65
2023-01-18T21:33:45.905Z,69.56
2023-01-18T21:36:14.623Z,69.68
2023-01-18T21:38:41.715Z,69.83
2023-01-18T21:41:27.434Z,69.76
2023-01-18T21:44:12.967Z,69.81
2023-01-18T21:46:45.103Z,69.70
2023-01-18T21:49:47.167Z,69.82
2023-01-18T21:52:37.114Z,69.70
2023-01-18T21:55:03.923Z,69.63
2023-01-18T21:57:30.531Z,69.65
2023-01-18T21:59:57.130Z,69.65
2023-01-18T22:02:23.916Z,69.76
2023-01-18T22:05:05.680Z,69.63
2023-01-18T22:07:34.301Z,69.77
2023-01-18T22:10:05.521Z,69.50
2023-01-18T22:12:35.495Z,69.57
2023-01-18T22:15:04.501Z,69.70
2023-01-18T22:17:31.411Z,69.61
2023-01-18T22:19:58.010Z,69.51
2023-01-18T22:22:24.573Z,69.59
2023-01-18T22:24:51.310Z,69.46
2023-01-18T22:27:18.022Z,69.32
2023-01-18T22:29:44.620Z,69.33
2023-01-18T22:32:11.184Z,69.28
2023-01-18T22:34:37.923Z,69.31
2023-01-18T22:37:05.695Z,69.33
2023-01-18T22:39:32.275Z,69.43
2023-01-18T22:41:58.833Z,69.45
2023-01-18T22:44:25.408Z,69.22
2023-01-18T22:46:52.199Z,69.09
2023-01-18T22:49:18.800Z,69.16
2023-01-18T22:51:45.412Z,69.24
2023-01-18T22:54:11.969Z,69.29
2023-01-18T22:56:38.535Z,69.35
2023-01-18T22:59:05.176Z,69.60
2023-01-18T23:01:32.832Z,69.73
2023-01-18T23:04:01.781Z,69.69
2023-01-18T23:06:29.595Z,69.84
2023-01-18T23:08:56.423Z,69.56
2023-01-18T23:11:26.295Z,69.35
2023-01-18T23:14:16.602Z,69.31
2023-01-18T23:17:02.289Z,69.33
2023-01-18T23:19:30.888Z,69.15
2023-01-18T23:21:58.044Z,69.13
2023-01-18T23:24:24.770Z,69.10
2023-01-18T23:26:51.841Z,69.09
2023-01-18T23:29:18.698Z,68.91
2023-01-18T23:31:45.240Z,68.75
2023-01-18T23:34:11.828Z,68.72
2023-01-18T23:36:38.505Z,68.74
2023-01-18T23:39:23.492Z,68.58
2023-01-18T23:42:08.531Z,68.59
2023-01-18T23:44:53.756Z,68.66
2023-01-18T23:47:39.078Z,68.64
2023-01-18T23:50:24.188Z,68.78
2023-01-18T23:53:09.480Z,68.66
2023-01-18T23:55:36.036Z,68.63
2023-01-18T23:58:03.011Z,68.69
